sensor_id;sensor_type;location;lat;lon;timestamp;pressure;altitude;pressure_sealevel;temperature;humidity
63439;BME280;49567;48.958;8.294;2022-11-24T00:00:06;99708.72;;;9.79;80.88
63439;BME280;49567;48.958;8.294;2022-11-24T00:02:32;99707.91;;;9.79;81.00
63439;BME280;49567;48.958;8.294;2022-11-24T00:04:57;99703.06;;;9.81;81.15
63439;BME280;49567;48.958;8.294;2022-11-24T00:07:22;99696.56;;;9.82;80.88
63439;BME280;49567;48.958;8.294;2022-11-24T00:09:47;99700.91;;;9.83;80.98
63439;BME280;49567;48.958;8.294;2022-11-24T00:12:13;99699.84;;;9.84;80.82
63439;BME280;49567;48.958;8.294;2022-11-24T00:14:38;99707.13;;;9.83;80.78
63439;BME280;49567;48.958;8.294;2022-11-24T00:17:03;99697.97;;;9.84;80.74
63439;BME280;49567;48.958;8.294;2022-11-24T00:19:28;99700.38;;;9.86;80.82
63439;BME280;49567;48.958;8.294;2022-11-24T00:21:54;99714.75;;;9.86;80.78
63439;BME280;49567;48.958;8.294;2022-11-24T00:24:19;99714.47;;;9.88;80.71
63439;BME280;49567;48.958;8.294;2022-11-24T00:26:44;99713.41;;;9.89;80.85
63439;BME280;49567;48.958;8.294;2022-11-24T00:29:10;99714.22;;;9.89;80.51
63439;BME280;49567;48.958;8.294;2022-11-24T00:31:36;99702.31;;;9.90;80.50
63439;BME280;49567;48.958;8.294;2022-11-24T00:34:05;99716.16;;;9.94;80.56
63439;BME280;49567;48.958;8.294;2022-11-24T00:36:33;99717.78;;;9.95;80.38
63439;BME280;49567;48.958;8.294;2022-11-24T00:39:01;99720.47;;;9.95;80.40
63439;BME280;49567;48.958;8.294;2022-11-24T00:41:27;99715.06;;;9.95;80.56
63439;BME280;49567;48.958;8.294;2022-11-24T00:43:53;99719.16;;;9.98;80.27
63439;BME280;49567;48.958;8.294;2022-11-24T00:46:19;99718.34;;;9.97;80.50
63439;BME280;49567;48.958;8.294;2022-11-24T00:48:45;99730.53;;;10.00;80.29
63439;BME280;49567;48.958;8.294;2022-11-24T00:51:13;99724.63;;;10.03;79.90
63439;BME280;49567;48.958;8.294;2022-11-24T00:53:39;99730.28;;;10.01;80.21
63439;BME280;49567;48.958;8.294;2022-11-24T00:56:04;99724.63;;;10.03;80.43
63439;BME280;49567;48.958;8.294;2022-11-24T00:58:30;99733.78;;;10.02;80.13
63439;BME280;49567;48.958;8.294;2022-11-24T01:01:02;99741.38;;;10.00;80.15
63439;BME280;49567;48.958;8.294;2022-11-24T01:03:28;99744.91;;;10.00;80.30
63439;BME280;49567;48.958;8.294;2022-11-24T01:05:53;99747.59;;;10.00;80.37
63439;BME280;49567;48.958;8.294;2022-11-24T01:08:19;99751.69;;;10.03;80.32
63439;BME280;49567;48.958;8.294;2022-11-24T01:10:44;99745.19;;;10.04;80.25
63439;BME280;49567;48.958;8.294;2022-11-24T01:13:09;99754.69;;;10.06;80.03
63439;BME280;49567;48.958;8.294;2022-11-24T01:15:36;99757.09;;;10.03;80.03
63439;BME280;49567;48.958;8.294;2022-11-24T01:18:02;99758.16;;;10.02;80.37
63439;BME280;49567;48.958;8.294;2022-11-24T01:20:28;99760.88;;;10.02;80.35
63439;BME280;49567;48.958;8.294;2022-11-24T01:22:53;99772.00;;;10.05;80.09
63439;BME280;49567;48.958;8.294;2022-11-24T01:25:18;99767.16;;;10.07;80.06
63439;BME280;49567;48.958;8.294;2022-11-24T01:27:44;99764.44;;;10.07;79.88
63439;BME280;49567;48.958;8.294;2022-11-24T01:30:09;99771.47;;;10.08;79.96
63439;BME280;49567;48.958;8.294;2022-11-24T01:32:35;99773.94;;;10.10;80.02
63439;BME280;49567;48.958;8.294;2022-11-24T01:35:02;99766.63;;;10.10;79.79
63439;BME280;49567;48.958;8.294;2022-11-24T01:37:28;99772.88;;;10.11;79.93
63439;BME280;49567;48.958;8.294;2022-11-24T01:39:53;99778.28;;;10.11;80.06
63439;BME280;49567;48.958;8.294;2022-11-24T01:42:19;99777.19;;;10.12;79.86
63439;BME280;49567;48.958;8.294;2022-11-24T01:44:44;99785.59;;;10.10;79.97
63439;BME280;49567;48.958;8.294;2022-11-24T01:47:29;99783.94;;;10.09;79.96
63439;BME280;49567;48.958;8.294;2022-11-24T01:49:57;99782.31;;;10.08;79.92
63439;BME280;49567;48.958;8.294;2022-11-24T01:54:55;99786.97;;;10.13;79.90
63439;BME280;49567;48.958;8.294;2022-11-24T01:57:26;99783.44;;;10.12;79.54
63439;BME280;49567;48.958;8.294;2022-11-24T01:59:58;99786.66;;;10.09;79.79
63439;BME280;49567;48.958;8.294;2022-11-24T02:02:27;99784.78;;;10.10;79.66
63439;BME280;49567;48.958;8.294;2022-11-24T02:04:55;99781.47;;;10.08;79.76
63439;BME280;49567;48.958;8.294;2022-11-24T02:07:23;99779.59;;;10.08;79.55
63439;BME280;49567;48.958;8.294;2022-11-24T02:09:53;99779.59;;;10.08;79.78
63439;BME280;49567;48.958;8.294;2022-11-24T02:12:21;99769.88;;;10.07;79.79
63439;BME280;49567;48.958;8.294;2022-11-24T02:14:47;99771.75;;;10.07;79.79
63439;BME280;49567;48.958;8.294;2022-11-24T02:17:12;99768.75;;;10.03;80.06
63439;BME280;49567;48.958;8.294;2022-11-24T02:19:49;99777.09;;;10.02;80.13
63439;BME280;49567;48.958;8.294;2022-11-24T02:25:49;99779.22;;;9.95;79.88
63439;BME280;49567;48.958;8.294;2022-11-24T02:28:09;99781.06;;;9.89;80.23
63439;BME280;49567;48.958;8.294;2022-11-24T02:30:36;99776.44;;;9.84;80.16
63439;BME280;49567;48.958;8.294;2022-11-24T02:33:02;99775.03;;;9.82;80.18
63439;BME280;49567;48.958;8.294;2022-11-24T02:35:27;99771.22;;;9.78;80.42
63439;BME280;49567;48.958;8.294;2022-11-24T02:37:52;99760.88;;;9.75;80.45
63439;BME280;49567;48.958;8.294;2022-11-24T02:40:21;99761.41;;;9.72;80.37
63439;BME280;49567;48.958;8.294;2022-11-24T02:42:54;99761.09;;;9.68;80.54
63439;BME280;49567;48.958;8.294;2022-11-24T02:45:21;99753.25;;;9.67;80.69
63439;BME280;49567;48.958;8.294;2022-11-24T02:47:47;99759.78;;;9.71;80.50
63439;BME280;49567;48.958;8.294;2022-11-24T02:50:12;99769.22;;;9.68;80.36
63439;BME280;49567;48.958;8.294;2022-11-24T02:52:38;99771.34;;;9.61;80.63
63439;BME280;49567;48.958;8.294;2022-11-24T02:55:03;99770.75;;;9.59;80.73
63439;BME280;49567;48.958;8.294;2022-11-24T02:57:29;99774.53;;;9.58;80.80
63439;BME280;49567;48.958;8.294;2022-11-24T02:59:54;99772.09;;;9.57;80.72
63439;BME280;49567;48.958;8.294;2022-11-24T03:02:19;99782.34;;;9.55;80.82
63439;BME280;49567;48.958;8.294;2022-11-24T03:04:45;99780.94;;;9.52;80.87
63439;BME280;49567;48.958;8.294;2022-11-24T03:07:10;99782.84;;;9.52;80.64
63439;BME280;49567;48.958;8.294;2022-11-24T03:09:35;99779.34;;;9.51;80.62
63439;BME280;49567;48.958;8.294;2022-11-24T03:12:00;99778.75;;;9.49;80.98
63439;BME280;49567;48.958;8.294;2022-11-24T03:14:26;99779.28;;;9.46;80.95
63439;BME280;49567;48.958;8.294;2022-11-24T03:16:51;99775.75;;;9.46;81.20
63439;BME280;49567;48.958;8.294;2022-11-24T03:19:16;99784.44;;;9.48;81.32
63439;BME280;49567;48.958;8.294;2022-11-24T03:21:42;99780.34;;;9.45;81.00
63439;BME280;49567;48.958;8.294;2022-11-24T03:24:07;99784.38;;;9.43;81.08
63439;BME280;49567;48.958;8.294;2022-11-24T03:26:33;99786.75;;;9.39;81.27
63439;BME280;49567;48.958;8.294;2022-11-24T03:28:58;99787.53;;;9.34;81.57
63439;BME280;49567;48.958;8.294;2022-11-24T03:31:24;99795.38;;;9.36;81.60
63439;BME280;49567;48.958;8.294;2022-11-24T03:33:49;99786.25;;;9.42;81.62
63439;BME280;49567;48.958;8.294;2022-11-24T03:36:14;99781.44;;;9.44;81.22
63439;BME280;49567;48.958;8.294;2022-11-24T03:38:41;99782.47;;;9.43;81.26
63439;BME280;49567;48.958;8.294;2022-11-24T03:41:06;99776.25;;;9.43;81.04
63439;BME280;49567;48.958;8.294;2022-11-24T03:43:31;99790.59;;;9.43;81.28
63439;BME280;49567;48.958;8.294;2022-11-24T03:45:57;99791.72;;;9.47;80.94
63439;BME280;49567;48.958;8.294;2022-11-24T03:48:22;99790.94;;;9.52;81.33
63439;BME280;49567;48.958;8.294;2022-11-24T03:50:52;99802.91;;;9.56;80.98
63439;BME280;49567;48.958;8.294;2022-11-24T03:53:18;99797.50;;;9.56;81.02
63439;BME280;49567;48.958;8.294;2022-11-24T03:55:43;99798.63;;;9.60;81.11
63439;BME280;49567;48.958;8.294;2022-11-24T03:58:09;99800.28;;;9.61;80.79
63439;BME280;49567;48.958;8.294;2022-11-24T04:00:34;99798.13;;;9.63;80.66
63439;BME280;49567;48.958;8.294;2022-11-24T04:02:59;99806.00;;;9.64;80.81
63439;BME280;49567;48.958;8.294;2022-11-24T04:05:25;99811.72;;;9.68;80.77
63439;BME280;49567;48.958;8.294;2022-11-24T04:07:50;99808.50;;;9.71;80.57
63439;BME280;49567;48.958;8.294;2022-11-24T04:10:15;99809.31;;;9.71;80.37
63439;BME280;49567;48.958;8.294;2022-11-24T04:12:40;99823.13;;;9.75;80.51
63439;BME280;49567;48.958;8.294;2022-11-24T04:15:13;99818.53;;;9.75;80.01
63439;BME280;49567;48.958;8.294;2022-11-24T04:17:38;99829.63;;;9.74;80.36
63439;BME280;49567;48.958;8.294;2022-11-24T04:20:04;99828.06;;;9.78;80.11
63439;BME280;49567;48.958;8.294;2022-11-24T04:22:30;99832.38;;;9.79;79.89
63439;BME280;49567;48.958;8.294;2022-11-24T04:24:55;99826.16;;;9.78;79.90
63439;BME280;49567;48.958;8.294;2022-11-24T04:27:20;99829.44;;;9.80;80.06
63439;BME280;49567;48.958;8.294;2022-11-24T04:29:46;99826.44;;;9.82;79.74
63439;BME280;49567;48.958;8.294;2022-11-24T04:32:11;99824.03;;;9.80;79.68
63439;BME280;49567;48.958;8.294;2022-11-24T04:34:36;99825.59;;;9.76;79.85
63439;BME280;49567;48.958;8.294;2022-11-24T04:37:02;99827.47;;;9.76;79.75
63439;BME280;49567;48.958;8.294;2022-11-24T04:39:28;99836.41;;;9.76;79.88
63439;BME280;49567;48.958;8.294;2022-11-24T04:41:53;99826.16;;;9.78;79.84
63439;BME280;49567;48.958;8.294;2022-11-24T04:44:18;99828.06;;;9.78;79.81
63439;BME280;49567;48.958;8.294;2022-11-24T04:46:44;99834.03;;;9.80;79.90
63439;BME280;49567;48.958;8.294;2022-11-24T04:49:09;99827.53;;;9.81;79.92
63439;BME280;49567;48.958;8.294;2022-11-24T04:51:39;99830.81;;;9.83;79.63
63439;BME280;49567;48.958;8.294;2022-11-24T04:54:06;99830.56;;;9.84;79.89
63439;BME280;49567;48.958;8.294;2022-11-24T04:56:31;99835.69;;;9.86;79.66
63439;BME280;49567;48.958;8.294;2022-11-24T04:58:57;99839.22;;;9.86;79.84
63439;BME280;49567;48.958;8.294;2022-11-24T05:01:22;99838.72;;;9.89;79.77
63439;BME280;49567;48.958;8.294;2022-11-24T05:03:48;99841.19;;;9.91;79.71
63439;BME280;49567;48.958;8.294;2022-11-24T05:06:13;99848.22;;;9.92;79.64
63439;BME280;49567;48.958;8.294;2022-11-24T05:08:38;99853.63;;;9.92;79.41
63439;BME280;49567;48.958;8.294;2022-11-24T05:11:05;99850.09;;;9.91;79.52
63439;BME280;49567;48.958;8.294;2022-11-24T05:13:31;99861.50;;;9.94;79.43
63439;BME280;49567;48.958;8.294;2022-11-24T05:15:56;99858.53;;;9.95;78.98
63439;BME280;49567;48.958;8.294;2022-11-24T05:18:22;99864.50;;;9.97;78.87
63439;BME280;49567;48.958;8.294;2022-11-24T05:20:47;99856.94;;;9.99;78.93
63439;BME280;49567;48.958;8.294;2022-11-24T05:23:13;99859.66;;;9.99;79.02
63439;BME280;49567;48.958;8.294;2022-11-24T05:25:39;99866.94;;;9.99;79.12
63439;BME280;49567;48.958;8.294;2022-11-24T05:28:06;99870.44;;;9.94;79.54
63439;BME280;49567;48.958;8.294;2022-11-24T05:30:38;99875.28;;;9.92;79.63
63439;BME280;49567;48.958;8.294;2022-11-24T05:33:10;99871.22;;;9.95;79.91
63439;BME280;49567;48.958;8.294;2022-11-24T05:35:36;99873.47;;;9.98;79.71
63439;BME280;49567;48.958;8.294;2022-11-24T05:38:02;99871.31;;;10.00;79.61
63439;BME280;49567;48.958;8.294;2022-11-24T05:40:29;99872.38;;;9.99;79.83
63439;BME280;49567;48.958;8.294;2022-11-24T05:42:54;99866.44;;;10.02;79.62
63439;BME280;49567;48.958;8.294;2022-11-24T05:45:20;99876.44;;;10.01;79.72
63439;BME280;49567;48.958;8.294;2022-11-24T05:47:47;99889.19;;;10.01;79.75
63439;BME280;49567;48.958;8.294;2022-11-24T05:50:14;99888.38;;;10.00;79.90
63439;BME280;49567;48.958;8.294;2022-11-24T05:52:39;99887.22;;;9.96;80.52
63439;BME280;49567;48.958;8.294;2022-11-24T05:55:06;99888.81;;;9.92;80.86
63439;BME280;49567;48.958;8.294;2022-11-24T05:57:32;99900.22;;;9.94;81.22
63439;BME280;49567;48.958;8.294;2022-11-24T05:59:58;99905.88;;;9.93;81.50
63439;BME280;49567;48.958;8.294;2022-11-24T06:02:24;99909.63;;;9.91;81.76
63439;BME280;49567;48.958;8.294;2022-11-24T06:04:49;99909.31;;;9.88;81.91
63439;BME280;49567;48.958;8.294;2022-11-24T06:07:14;99920.66;;;9.85;82.38
63439;BME280;49567;48.958;8.294;2022-11-24T06:09:41;99919.59;;;9.86;82.47
63439;BME280;49567;48.958;8.294;2022-11-24T06:12:07;99919.59;;;9.86;82.53
63439;BME280;49567;48.958;8.294;2022-11-24T06:14:33;99919.88;;;9.84;82.66
63439;BME280;49567;48.958;8.294;2022-11-24T06:16:59;99934.69;;;9.82;82.94
63439;BME280;49567;48.958;8.294;2022-11-24T06:19:24;99936.34;;;9.83;83.50
63439;BME280;49567;48.958;8.294;2022-11-24T06:21:49;99942.81;;;9.82;83.44
63439;BME280;49567;48.958;8.294;2022-11-24T06:24:15;99942.00;;;9.81;83.67
63439;BME280;49567;48.958;8.294;2022-11-24T06:26:42;99953.31;;;9.78;83.64
63439;BME280;49567;48.958;8.294;2022-11-24T06:29:07;99967.13;;;9.77;83.92
63439;BME280;49567;48.958;8.294;2022-11-24T06:31:33;99970.06;;;9.75;84.34
63439;BME280;49567;48.958;8.294;2022-11-24T06:33:58;99970.06;;;9.75;84.67
63439;BME280;49567;48.958;8.294;2022-11-24T06:36:24;99960.88;;;9.76;84.85
63439;BME280;49567;48.958;8.294;2022-11-24T06:38:50;99966.81;;;9.73;84.81
63439;BME280;49567;48.958;8.294;2022-11-24T06:41:16;99970.34;;;9.74;85.34
63439;BME280;49567;48.958;8.294;2022-11-24T06:43:42;99973.28;;;9.72;85.52
63439;BME280;49567;48.958;8.294;2022-11-24T06:46:08;99975.66;;;9.69;85.50
63439;BME280;49567;48.958;8.294;2022-11-24T06:48:34;99978.63;;;9.67;85.75
63439;BME280;49567;48.958;8.294;2022-11-24T06:51:01;99985.44;;;9.70;86.12
63439;BME280;49567;48.958;8.294;2022-11-24T06:53:31;99983.53;;;9.70;85.81
63439;BME280;49567;48.958;8.294;2022-11-24T06:56:00;99992.41;;;9.66;86.15
63439;BME280;49567;48.958;8.294;2022-11-24T06:58:26;99999.69;;;9.65;86.04
63439;BME280;49567;48.958;8.294;2022-11-24T07:00:51;99989.63;;;9.61;86.39
63439;BME280;49567;48.958;8.294;2022-11-24T07:03:17;99993.63;;;9.58;86.41
63439;BME280;49567;48.958;8.294;2022-11-24T07:05:43;99996.06;;;9.55;86.67
63439;BME280;49567;48.958;8.294;2022-11-24T07:08:09;99992.25;;;9.56;86.26
63439;BME280;49567;48.958;8.294;2022-11-24T07:10:34;99983.09;;;9.57;86.49
63439;BME280;49567;48.958;8.294;2022-11-24T07:13:00;99976.84;;;9.56;85.95
63439;BME280;49567;48.958;8.294;2022-11-24T07:15:28;100003.66;;;9.58;86.01
63439;BME280;49567;48.958;8.294;2022-11-24T07:17:53;99993.09;;;9.56;85.96
63439;BME280;49567;48.958;8.294;2022-11-24T07:20:19;99998.75;;;9.55;85.99
63439;BME280;49567;48.958;8.294;2022-11-24T07:22:44;99994.97;;;9.56;85.93
63439;BME280;49567;48.958;8.294;2022-11-24T07:25:09;99998.50;;;9.56;85.51
63439;BME280;49567;48.958;8.294;2022-11-24T07:27:35;100007.16;;;9.58;85.97
63439;BME280;49567;48.958;8.294;2022-11-24T07:30:01;100008.81;;;9.59;85.48
63439;BME280;49567;48.958;8.294;2022-11-24T07:32:28;100032.34;;;9.59;85.63
63439;BME280;49567;48.958;8.294;2022-11-24T07:34:53;100030.72;;;9.58;85.46
63439;BME280;49567;48.958;8.294;2022-11-24T07:37:18;100039.88;;;9.57;85.38
63439;BME280;49567;48.958;8.294;2022-11-24T07:39:44;100043.91;;;9.54;85.08
63439;BME280;49567;48.958;8.294;2022-11-24T07:42:09;100039.34;;;9.55;84.73
63439;BME280;49567;48.958;8.294;2022-11-24T07:44:35;100044.16;;;9.53;85.02
63439;BME280;49567;48.958;8.294;2022-11-24T07:47:00;100053.66;;;9.55;84.68
63439;BME280;49567;48.958;8.294;2022-11-24T07:49:26;100057.44;;;9.54;84.87
63439;BME280;49567;48.958;8.294;2022-11-24T07:51:51;100059.00;;;9.50;84.59
63439;BME280;49567;48.958;8.294;2022-11-24T07:54:16;100064.97;;;9.52;84.80
63439;BME280;49567;48.958;8.294;2022-11-24T07:56:41;100061.16;;;9.48;84.55
63439;BME280;49567;48.958;8.294;2022-11-24T07:59:07;100067.59;;;9.47;84.50
63439;BME280;49567;48.958;8.294;2022-11-24T08:01:32;100067.03;;;9.45;84.23
63439;BME280;49567;48.958;8.294;2022-11-24T08:03:57;100075.97;;;9.46;84.44
63439;BME280;49567;48.958;8.294;2022-11-24T08:06:23;100078.44;;;9.47;84.21
63439;BME280;49567;48.958;8.294;2022-11-24T08:08:48;100077.94;;;9.50;83.99
63439;BME280;49567;48.958;8.294;2022-11-24T08:11:16;100079.91;;;9.55;83.92
63439;BME280;49567;48.958;8.294;2022-11-24T08:13:42;100075.63;;;9.59;83.58
63439;BME280;49567;48.958;8.294;2022-11-24T08:16:09;100080.53;;;9.62;83.48
63439;BME280;49567;48.958;8.294;2022-11-24T08:18:36;100078.47;;;9.69;83.22
63439;BME280;49567;48.958;8.294;2022-11-24T08:21:02;100089.63;;;9.72;83.06
63439;BME280;49567;48.958;8.294;2022-11-24T08:23:28;100084.88;;;9.79;82.84
63439;BME280;49567;48.958;8.294;2022-11-24T08:25:53;100096.25;;;9.81;82.28
63439;BME280;49567;48.958;8.294;2022-11-24T08:28:20;100090.38;;;9.84;82.22
63439;BME280;49567;48.958;8.294;2022-11-24T08:30:46;100097.41;;;9.85;82.16
63439;BME280;49567;48.958;8.294;2022-11-24T08:33:11;100096.06;;;9.88;81.85
63439;BME280;49567;48.958;8.294;2022-11-24T08:35:37;100110.19;;;9.90;81.83
63439;BME280;49567;48.958;8.294;2022-11-24T08:38:03;100105.78;;;9.84;82.03
63439;BME280;49567;48.958;8.294;2022-11-24T08:40:28;100119.63;;;9.87;81.77
63439;BME280;49567;48.958;8.294;2022-11-24T08:43:00;100114.97;;;9.83;82.16
63439;BME280;49567;48.958;8.294;2022-11-24T08:45:26;100118.22;;;9.85;81.97
63439;BME280;49567;48.958;8.294;2022-11-24T08:47:55;100120.94;;;9.85;82.27
63439;BME280;49567;48.958;8.294;2022-11-24T08:50:22;100131.94;;;9.78;81.98
63439;BME280;49567;48.958;8.294;2022-11-24T08:52:50;100135.97;;;9.76;81.77
63439;BME280;49567;48.958;8.294;2022-11-24T08:55:16;100137.34;;;9.78;82.07
63439;BME280;49567;48.958;8.294;2022-11-24T08:57:41;100142.25;;;9.81;82.00
63439;BME280;49567;48.958;8.294;2022-11-24T09:00:07;100148.25;;;9.83;82.17
63439;BME280;49567;48.958;8.294;2022-11-24T09:02:32;100142.25;;;9.81;82.05
63439;BME280;49567;48.958;8.294;2022-11-24T09:04:58;100144.72;;;9.83;82.09
63439;BME280;49567;48.958;8.294;2022-11-24T09:07:23;100157.69;;;9.81;82.54
63439;BME280;49567;48.958;8.294;2022-11-24T09:09:48;100165.88;;;9.86;82.21
63439;BME280;49567;48.958;8.294;2022-11-24T09:12:14;100166.72;;;9.86;82.08
63439;BME280;49567;48.958;8.294;2022-11-24T09:14:39;100175.06;;;9.85;82.27
63439;BME280;49567;48.958;8.294;2022-11-24T09:17:04;100179.91;;;9.83;82.21
63439;BME280;49567;48.958;8.294;2022-11-24T09:19:30;100186.22;;;9.88;82.38
63439;BME280;49567;48.958;8.294;2022-11-24T09:21:55;100187.63;;;9.91;82.14
63439;BME280;49567;48.958;8.294;2022-11-24T09:24:20;100190.41;;;9.96;82.00
63439;BME280;49567;48.958;8.294;2022-11-24T09:26:46;100188.25;;;9.98;82.16
63439;BME280;49567;48.958;8.294;2022-11-24T09:29:11;100201.00;;;9.98;81.97
63439;BME280;49567;48.958;8.294;2022-11-24T09:31:37;100208.34;;;10.02;82.23
63439;BME280;49567;48.958;8.294;2022-11-24T09:34:08;100202.88;;;9.97;82.25
63439;BME280;49567;48.958;8.294;2022-11-24T09:36:35;100216.41;;;9.97;82.27
63439;BME280;49567;48.958;8.294;2022-11-24T09:39:01;100224.53;;;9.97;82.67
63439;BME280;49567;48.958;8.294;2022-11-24T09:45:03;100235.69;;;10.01;82.81
63439;BME280;49567;48.958;8.294;2022-11-24T09:47:53;100244.72;;;10.06;82.93
63439;BME280;49567;48.958;8.294;2022-11-24T09:50:26;100244.44;;;10.08;82.74
63439;BME280;49567;48.958;8.294;2022-11-24T09:53:13;100237.75;;;10.10;82.65
63439;BME280;49567;48.958;8.294;2022-11-24T09:55:44;100241.00;;;10.12;83.11
63439;BME280;49567;48.958;8.294;2022-11-24T09:58:16;100234.63;;;10.35;82.75
63439;BME280;49567;48.958;8.294;2022-11-24T10:00:43;100239.41;;;10.66;82.00
63439;BME280;49567;48.958;8.294;2022-11-24T10:03:23;100239.91;;;11.07;81.11
63439;BME280;49567;48.958;8.294;2022-11-24T10:05:51;100239.22;;;11.16;80.56
63439;BME280;49567;48.958;8.294;2022-11-24T10:08:36;100226.41;;;11.12;80.51
63439;BME280;49567;48.958;8.294;2022-11-24T10:11:15;100228.25;;;11.06;80.63
63439;BME280;49567;48.958;8.294;2022-11-24T10:16:51;100225.66;;;10.94;81.02
63439;BME280;49567;48.958;8.294;2022-11-24T10:22:13;100228.63;;;10.93;81.00
63439;BME280;49567;48.958;8.294;2022-11-24T10:25:06;100219.38;;;10.89;81.35
63439;BME280;49567;48.958;8.294;2022-11-24T10:27:37;100228.56;;;11.10;80.87
63439;BME280;49567;48.958;8.294;2022-11-24T10:30:21;100229.56;;;11.25;80.36
63439;BME280;49567;48.958;8.294;2022-11-24T10:35:49;100234.63;;;10.95;80.80
63439;BME280;49567;48.958;8.294;2022-11-24T10:38:34;100241.06;;;10.89;81.09
63439;BME280;49567;48.958;8.294;2022-11-24T10:41:13;100245.16;;;10.91;81.16
63439;BME280;49567;48.958;8.294;2022-11-24T10:43:41;100249.38;;;11.04;81.03
63439;BME280;49567;48.958;8.294;2022-11-24T10:46:14;100248.09;;;11.12;80.92
63439;BME280;49567;48.958;8.294;2022-11-24T10:48:44;100241.47;;;11.24;80.91
63439;BME280;49567;48.958;8.294;2022-11-24T10:51:33;100241.38;;;11.41;80.34
63439;BME280;49567;48.958;8.294;2022-11-24T10:54:09;100245.84;;;11.52;80.08
63439;BME280;49567;48.958;8.294;2022-11-24T10:56:40;100244.72;;;11.48;80.15
63439;BME280;49567;48.958;8.294;2022-11-24T10:59:21;100241.41;;;11.46;80.17
63439;BME280;49567;48.958;8.294;2022-11-24T11:01:46;100242.50;;;11.45;80.22
63439;BME280;49567;48.958;8.294;2022-11-24T11:04:20;100239.09;;;11.55;80.06
63439;BME280;49567;48.958;8.294;2022-11-24T11:06:48;100243.44;;;11.56;79.91
63439;BME280;49567;48.958;8.294;2022-11-24T11:09:19;100238.59;;;11.63;80.04
63439;BME280;49567;48.958;8.294;2022-11-24T11:11:45;100237.66;;;11.74;79.48
63439;BME280;49567;48.958;8.294;2022-11-24T11:14:27;100231.25;;;11.85;78.84
63439;BME280;49567;48.958;8.294;2022-11-24T11:16:54;100234.31;;;11.93;78.22
63439;BME280;49567;48.958;8.294;2022-11-24T11:19:36;100231.25;;;11.85;77.99
63439;BME280;49567;48.958;8.294;2022-11-24T11:24:40;100239.84;;;11.77;78.57
63439;BME280;49567;48.958;8.294;2022-11-24T11:27:21;100238.53;;;11.79;78.10
63439;BME280;49567;48.958;8.294;2022-11-24T11:29:47;100234.41;;;11.72;78.04
63439;BME280;49567;48.958;8.294;2022-11-24T11:32:22;100240.13;;;11.75;77.95
63439;BME280;49567;48.958;8.294;2022-11-24T11:34:49;100248.00;;;11.77;77.78
63439;BME280;49567;48.958;8.294;2022-11-24T11:37:16;100246.88;;;11.73;77.97
63439;BME280;49567;48.958;8.294;2022-11-24T11:39:45;100243.34;;;11.72;77.82
63439;BME280;49567;48.958;8.294;2022-11-24T11:42:38;100235.69;;;11.69;77.78
63439;BME280;49567;48.958;8.294;2022-11-24T11:45:26;100232.09;;;11.64;77.47
63439;BME280;49567;48.958;8.294;2022-11-24T11:47:57;100236.69;;;11.58;77.52
63439;BME280;49567;48.958;8.294;2022-11-24T11:50:39;100238.78;;;11.51;76.87
63439;BME280;49567;48.958;8.294;2022-11-24T11:56:00;100237.41;;;11.49;76.86
63439;BME280;49567;48.958;8.294;2022-11-24T12:07:00;100227.84;;;12.00;75.46
63439;BME280;49567;48.958;8.294;2022-11-24T12:15:04;100233.06;;;11.74;75.86
63439;BME280;49567;48.958;8.294;2022-11-24T12:17:57;100235.47;;;11.71;76.17
63439;BME280;49567;48.958;8.294;2022-11-24T12:20:39;100244.22;;;11.78;75.45
63439;BME280;49567;48.958;8.294;2022-11-24T12:26:00;100237.91;;;11.72;75.30
63439;BME280;49567;48.958;8.294;2022-11-24T12:31:06;100239.94;;;11.60;74.68
63439;BME280;49567;48.958;8.294;2022-11-24T12:36:40;100247.34;;;11.70;73.96
63439;BME280;49567;48.958;8.294;2022-11-24T12:42:34;100249.34;;;12.06;72.75
63439;BME280;49567;48.958;8.294;2022-11-24T12:45:17;100239.06;;;12.08;72.33
63439;BME280;49567;48.958;8.294;2022-11-24T12:50:27;100250.53;;;12.20;71.08
63439;BME280;49567;48.958;8.294;2022-11-24T12:53:02;100257.69;;;12.31;70.71
63439;BME280;49567;48.958;8.294;2022-11-24T12:55:29;100261.50;;;12.35;70.31
63439;BME280;49567;48.958;8.294;2022-11-24T12:58:04;100260.19;;;12.38;70.08
63439;BME280;49567;48.958;8.294;2022-11-24T13:00:42;100260.41;;;12.31;70.06
63439;BME280;49567;48.958;8.294;2022-11-24T13:03:32;100255.00;;;12.36;70.21
63439;BME280;49567;48.958;8.294;2022-11-24T13:06:15;100247.47;;;12.48;69.84
63439;BME280;49567;48.958;8.294;2022-11-24T13:08:42;100249.13;;;12.49;69.69
63439;BME280;49567;48.958;8.294;2022-11-24T13:11:43;100255.91;;;12.47;69.60
63439;BME280;49567;48.958;8.294;2022-11-24T13:14:20;100257.03;;;12.56;70.03
63439;BME280;49567;48.958;8.294;2022-11-24T13:16:50;100256.28;;;12.66;69.64
63439;BME280;49567;48.958;8.294;2022-11-24T13:19:19;100265.56;;;12.70;69.60
63439;BME280;49567;48.958;8.294;2022-11-24T13:21:58;100260.66;;;12.72;69.12
63439;BME280;49567;48.958;8.294;2022-11-24T13:24:26;100263.13;;;12.78;68.89
63439;BME280;49567;48.958;8.294;2022-11-24T13:29:40;100258.56;;;12.42;69.04
63439;BME280;49567;48.958;8.294;2022-11-24T13:37:44;100253.66;;;12.39;68.90
63439;BME280;49567;48.958;8.294;2022-11-24T13:56:20;100254.44;;;11.98;69.02
63439;BME280;49567;48.958;8.294;2022-11-24T13:58:49;100251.97;;;11.96;69.32
63439;BME280;49567;48.958;8.294;2022-11-24T14:01:27;100252.53;;;11.98;69.18
63439;BME280;49567;48.958;8.294;2022-11-24T14:04:04;100246.31;;;12.03;69.39
63439;BME280;49567;48.958;8.294;2022-11-24T14:06:39;100243.88;;;12.01;69.23
63439;BME280;49567;48.958;8.294;2022-11-24T14:12:22;100249.53;;;11.94;68.38
63439;BME280;49567;48.958;8.294;2022-11-24T14:14:49;100242.41;;;11.88;68.34
63439;BME280;49567;48.958;8.294;2022-11-24T14:19:50;100236.09;;;11.83;68.21
63439;BME280;49567;48.958;8.294;2022-11-24T14:22:21;100243.13;;;11.79;68.15
63439;BME280;49567;48.958;8.294;2022-11-24T14:24:51;100245.56;;;11.75;68.20
63439;BME280;49567;48.958;8.294;2022-11-24T14:27:21;100237.91;;;11.72;68.06
63439;BME280;49567;48.958;8.294;2022-11-24T14:30:00;100230.88;;;11.71;67.68